createdAt,value
2022-10-05T00:00:10.472Z, 22.27
2022-10-05T00:01:10.463Z, 22.28
2022-10-05T00:02:10.544Z, 22.30
2022-10-05T00:03:10.499Z, 22.29
2022-10-05T00:04:10.541Z, 22.27
2022-10-05T00:05:10.585Z, 22.28
2022-10-05T00:06:10.510Z, 22.27
2022-10-05T00:07:10.522Z, 22.28
2022-10-05T00:08:10.500Z, 22.27
2022-10-05T00:09:10.500Z, 22.28
2022-10-05T00:10:10.530Z, 22.28
2022-10-05T00:11:10.532Z, 22.28
2022-10-05T00:12:10.516Z, 22.28
2022-10-05T00:13:10.550Z, 22.28
2022-10-05T00:14:10.545Z, 22.27
2022-10-05T00:15:10.557Z, 22.27
2022-10-05T00:16:10.613Z, 22.28
2022-10-05T00:17:10.553Z, 22.27
2022-10-05T00:18:10.579Z, 22.27
2022-10-05T00:19:10.545Z, 22.28
2022-10-05T00:20:10.545Z, 22.25
2022-10-05T00:21:10.549Z, 22.28
2022-10-05T00:22:10.574Z, 22.28
2022-10-05T00:23:10.553Z, 22.26
2022-10-05T00:24:10.557Z, 22.28
2022-10-05T00:25:10.555Z, 22.30
2022-10-05T00:26:10.559Z, 22.28
2022-10-05T00:27:10.565Z, 22.30
2022-10-05T00:28:10.582Z, 22.28
2022-10-05T00:29:10.576Z, 22.30
2022-10-05T00:30:10.562Z, 22.29
2022-10-05T00:31:10.596Z, 22.28
2022-10-05T00:32:10.691Z, 22.27
2022-10-05T00:33:10.621Z, 22.28
2022-10-05T00:34:10.582Z, 22.29
2022-10-05T00:35:10.584Z, 22.28
2022-10-05T00:36:10.600Z, 22.29
2022-10-05T00:37:10.585Z, 22.29
2022-10-05T00:38:10.590Z, 22.28
2022-10-05T00:39:10.585Z, 22.28
2022-10-05T00:40:14.893Z, 22.27
2022-10-05T00:41:10.612Z, 22.30
2022-10-05T00:42:10.590Z, 22.30
2022-10-05T00:43:10.593Z, 22.30
2022-10-05T00:44:10.599Z, 22.28
2022-10-05T00:45:10.591Z, 22.30
2022-10-05T00:46:10.667Z, 22.32
2022-10-05T00:47:10.587Z, 22.28
2022-10-05T00:48:10.589Z, 22.29
2022-10-05T00:49:10.599Z, 22.29
2022-10-05T00:50:10.587Z, 22.31
2022-10-05T00:51:10.591Z, 22.30
2022-10-05T00:52:10.594Z, 22.29
2022-10-05T00:53:10.613Z, 22.29
2022-10-05T00:54:12.631Z, 22.30
2022-10-05T00:55:10.607Z, 22.29
2022-10-05T00:56:10.603Z, 22.29
2022-10-05T00:57:10.630Z, 22.29
2022-10-05T00:58:10.610Z, 22.29
2022-10-05T00:59:10.608Z, 22.30
2022-10-05T01:00:10.634Z, 22.29
2022-10-05T01:01:10.710Z, 22.29
2022-10-05T01:02:10.758Z, 22.30
2022-10-05T01:03:10.629Z, 22.28
2022-10-05T01:04:10.627Z, 22.29
2022-10-05T01:05:10.625Z, 22.30
2022-10-05T01:06:10.622Z, 22.28
2022-10-05T01:07:10.623Z, 22.31
2022-10-05T01:08:10.632Z, 22.31
2022-10-05T01:09:10.696Z, 22.30
2022-10-05T01:10:10.753Z, 22.30
2022-10-05T01:11:10.795Z, 22.30
2022-10-05T01:12:10.765Z, 22.29
2022-10-05T01:13:10.777Z, 22.28
2022-10-05T01:14:10.799Z, 22.30
2022-10-05T01:15:10.907Z, 22.29
2022-10-05T01:16:11.031Z, 22.29
2022-10-05T01:17:10.964Z, 22.29
2022-10-05T01:18:11.014Z, 22.28
2022-10-05T01:19:10.993Z, 22.29
2022-10-05T01:20:11.039Z, 22.28
2022-10-05T01:21:11.031Z, 22.29
2022-10-05T01:22:11.052Z, 22.28
2022-10-05T01:23:11.093Z, 22.29
2022-10-05T01:24:11.114Z, 22.27
2022-10-05T01:25:11.161Z, 22.30
2022-10-05T01:26:11.189Z, 22.27
2022-10-05T01:27:11.220Z, 22.29
2022-10-05T01:28:11.364Z, 22.31
2022-10-05T01:29:11.349Z, 22.28
2022-10-05T01:30:11.299Z, 22.28
2022-10-05T01:31:11.389Z, 22.29
2022-10-05T01:32:11.360Z, 22.28
2022-10-05T01:33:11.452Z, 22.28
2022-10-05T01:34:11.774Z, 22.30
2022-10-05T01:35:11.483Z, 22.30
2022-10-05T01:36:11.464Z, 22.30
2022-10-05T01:37:11.499Z, 22.31
2022-10-05T01:38:11.556Z, 22.29
2022-10-05T01:39:11.596Z, 22.29
2022-10-05T01:40:11.593Z, 22.29
2022-10-05T01:41:11.653Z, 22.29
2022-10-05T01:42:11.676Z, 22.30
2022-10-05T01:43:11.776Z, 22.30
2022-10-05T01:44:11.822Z, 22.28
2022-10-05T01:45:11.789Z, 22.30
2022-10-05T01:46:11.937Z, 22.30
2022-10-05T01:47:11.835Z, 22.31
2022-10-05T01:48:11.930Z, 22.31
2022-10-05T01:49:11.994Z, 22.30
2022-10-05T01:50:12.030Z, 22.29
2022-10-05T01:51:12.019Z, 22.29
2022-10-05T01:52:12.057Z, 22.29
2022-10-05T01:53:12.127Z, 22.30
2022-10-05T01:54:12.120Z, 22.32
2022-10-05T01:55:12.164Z, 22.29
2022-10-05T01:56:12.162Z, 22.30
2022-10-05T01:57:12.245Z, 22.33
2022-10-05T01:58:12.284Z, 22.30
2022-10-05T01:59:12.310Z, 22.30
2022-10-05T02:00:12.296Z, 22.30
2022-10-05T02:01:15.257Z, 22.29
2022-10-05T02:02:12.460Z, 22.30
2022-10-05T02:03:12.416Z, 22.31
2022-10-05T02:04:18.642Z, 22.30
2022-10-05T02:05:12.501Z, 22.30
2022-10-05T02:06:12.469Z, 22.29
2022-10-05T02:07:12.508Z, 22.31
2022-10-05T02:08:12.533Z, 22.28
2022-10-05T02:09:12.561Z, 22.30
2022-10-05T02:10:12.592Z, 22.29
2022-10-05T02:11:12.625Z, 22.30
2022-10-05T02:12:12.683Z, 22.29
2022-10-05T02:13:12.670Z, 22.28
2022-10-05T02:14:12.783Z, 22.30
2022-10-05T02:15:12.764Z, 22.29
2022-10-05T02:16:12.842Z, 22.29
2022-10-05T02:17:12.826Z, 22.30
2022-10-05T02:18:12.915Z, 22.29
2022-10-05T02:19:12.969Z, 22.31
2022-10-05T02:20:12.927Z, 22.30
2022-10-05T02:21:13.020Z, 22.30
2022-10-05T02:22:12.995Z, 22.32
2022-10-05T02:23:13.073Z, 22.32
2022-10-05T02:24:13.066Z, 22.31
2022-10-05T02:25:13.081Z, 22.31
2022-10-05T02:26:13.164Z, 22.32
2022-10-05T02:27:13.151Z, 22.30
2022-10-05T02:28:13.240Z, 22.29
2022-10-05T02:29:13.201Z, 22.31
2022-10-05T02:30:16.479Z, 22.29
2022-10-05T02:31:13.329Z, 22.29
2022-10-05T02:32:13.328Z, 22.28
2022-10-05T02:33:13.359Z, 22.30
2022-10-05T02:34:13.396Z, 22.32
2022-10-05T02:35:13.433Z, 22.31
2022-10-05T02:36:13.507Z, 22.31
2022-10-05T02:37:13.554Z, 22.32
2022-10-05T02:38:13.529Z, 22.30
2022-10-05T02:39:13.560Z, 22.30
2022-10-05T02:40:13.785Z, 22.29
2022-10-05T02:41:13.788Z, 22.30
2022-10-05T02:42:13.661Z, 22.31
2022-10-05T02:43:13.785Z, 22.32
2022-10-05T02:44:13.786Z, 22.31
2022-10-05T02:45:13.795Z, 22.30
2022-10-05T02:46:13.936Z, 22.31
2022-10-05T02:47:13.817Z, 22.30
2022-10-05T02:48:13.859Z, 22.30
2022-10-05T02:49:13.883Z, 22.30
2022-10-05T02:50:13.982Z, 22.29
2022-10-05T02:51:13.989Z, 22.29
2022-10-05T02:52:13.976Z, 22.31
2022-10-05T02:53:14.007Z, 22.31
2022-10-05T02:54:14.097Z, 22.30
2022-10-05T02:55:14.138Z, 22.31
2022-10-05T02:56:14.067Z, 22.31
2022-10-05T02:57:14.006Z, 22.30
2022-10-05T02:58:14.038Z, 22.32
2022-10-05T02:59:14.015Z, 22.31
2022-10-05T03:00:14.021Z, 22.30
2022-10-05T03:01:14.062Z, 22.31
2022-10-05T03:02:14.076Z, 22.29
2022-10-05T03:03:14.047Z, 22.31
2022-10-05T03:04:14.063Z, 22.31
2022-10-05T03:05:14.064Z, 22.29
2022-10-05T03:06:14.068Z, 22.33
2022-10-05T03:07:14.073Z, 22.31
2022-10-05T03:08:14.090Z, 22.29
2022-10-05T03:09:14.109Z, 22.30
2022-10-05T03:10:14.079Z, 22.30
2022-10-05T03:11:14.119Z, 22.30
2022-10-05T03:12:14.124Z, 22.32
2022-10-05T03:13:14.100Z, 22.31
2022-10-05T03:14:14.096Z, 22.31
2022-10-05T03:15:14.108Z, 22.32
2022-10-05T03:16:14.301Z, 22.29
2022-10-05T03:17:14.100Z, 22.31
2022-10-05T03:18:14.119Z, 22.30
2022-10-05T03:19:14.158Z, 22.30
2022-10-05T03:20:14.121Z, 22.32
2022-10-05T03:21:14.148Z, 22.30
2022-10-05T03:22:15.689Z, 22.30
2022-10-05T03:23:14.171Z, 22.30
2022-10-05T03:24:14.152Z, 22.31
2022-10-05T03:25:14.161Z, 22.29
2022-10-05T03:26:14.169Z, 22.31
2022-10-05T03:27:14.206Z, 22.30
2022-10-05T03:28:14.276Z, 22.30
2022-10-05T03:29:14.191Z, 22.31
2022-10-05T03:30:14.194Z, 22.29
2022-10-05T03:31:14.279Z, 22.29
2022-10-05T03:32:14.205Z, 22.29
2022-10-05T03:33:14.243Z, 22.28
2022-10-05T03:34:14.205Z, 22.30
2022-10-05T03:35:14.221Z, 22.29
2022-10-05T03:36:14.209Z, 22.30
2022-10-05T03:37:14.235Z, 22.31
2022-10-05T03:38:14.220Z, 22.29
2022-10-05T03:39:14.251Z, 22.30
2022-10-05T03:40:14.262Z, 22.31
2022-10-05T03:41:14.255Z, 22.31
2022-10-05T03:42:14.265Z, 22.29
2022-10-05T03:43:14.260Z, 22.33
2022-10-05T03:44:14.278Z, 22.30
2022-10-05T03:45:14.278Z, 22.31
2022-10-05T03:46:14.312Z, 22.31
2022-10-05T03:47:14.294Z, 22.31
2022-10-05T03:48:14.297Z, 22.28
2022-10-05T03:49:14.305Z, 22.31
2022-10-05T03:50:14.330Z, 22.29
2022-10-05T03:51:14.325Z, 22.30
2022-10-05T03:52:14.320Z, 22.30
2022-10-05T03:53:14.316Z, 22.30
2022-10-05T03:54:14.318Z, 22.32
2022-10-05T03:55:14.350Z, 22.29
2022-10-05T03:56:14.341Z, 22.30
2022-10-05T03:57:14.349Z, 22.30
2022-10-05T03:58:14.336Z, 22.30
2022-10-05T03:59:14.337Z, 22.29
2022-10-05T04:00:14.355Z, 22.31
2022-10-05T04:01:14.399Z, 22.29
2022-10-05T04:02:14.432Z, 22.30
2022-10-05T04:03:14.363Z, 22.31
2022-10-05T04:04:14.363Z, 22.29
2022-10-05T04:05:14.398Z, 22.30
2022-10-05T04:06:14.403Z, 22.30
2022-10-05T04:07:14.419Z, 22.29
2022-10-05T04:08:14.424Z, 22.29
2022-10-05T04:09:14.429Z, 22.29
2022-10-05T04:10:14.414Z, 22.29
2022-10-05T04:11:14.418Z, 22.30
2022-10-05T04:12:14.419Z, 22.29
2022-10-05T04:13:14.425Z, 22.32
2022-10-05T04:14:14.422Z, 22.33
2022-10-05T04:15:18.681Z, 22.35
2022-10-05T04:16:14.571Z, 22.33
2022-10-05T04:17:14.465Z, 22.33
2022-10-05T04:18:14.471Z, 22.33
2022-10-05T04:19:14.458Z, 22.33
2022-10-05T04:20:14.468Z, 22.32
2022-10-05T04:21:14.478Z, 22.32
2022-10-05T04:22:14.457Z, 22.32
2022-10-05T04:23:14.457Z, 22.34
2022-10-05T04:24:14.497Z, 22.33
2022-10-05T04:25:14.482Z, 22.33
2022-10-05T04:26:14.484Z, 22.33
2022-10-05T04:27:14.496Z, 22.34
2022-10-05T04:28:14.594Z, 22.35
2022-10-05T04:29:14.522Z, 22.35
2022-10-05T04:30:14.518Z, 22.36
2022-10-05T04:31:14.550Z, 22.36
2022-10-05T04:32:14.531Z, 22.37
2022-10-05T04:33:14.559Z, 22.36
2022-10-05T04:34:14.549Z, 22.37
2022-10-05T04:35:14.546Z, 22.39
2022-10-05T04:36:14.544Z, 22.37
2022-10-05T04:37:14.563Z, 22.40
2022-10-05T04:38:14.556Z, 22.40
2022-10-05T04:39:14.596Z, 22.39
2022-10-05T04:40:14.560Z, 22.38
2022-10-05T04:41:14.608Z, 22.40
2022-10-05T04:42:14.578Z, 22.39
2022-10-05T04:43:16.096Z, 22.40
2022-10-05T04:44:14.595Z, 22.40
2022-10-05T04:45:14.591Z, 22.40
2022-10-05T04:46:14.652Z, 22.40
2022-10-05T04:47:14.600Z, 22.42
2022-10-05T04:48:14.638Z, 22.40
2022-10-05T04:49:14.625Z, 22.42
2022-10-05T04:50:14.624Z, 22.40
2022-10-05T04:51:14.633Z, 22.41
2022-10-05T04:52:14.640Z, 22.42
2022-10-05T04:53:14.644Z, 22.41
2022-10-05T04:54:14.641Z, 22.42
2022-10-05T04:55:14.648Z, 22.42
2022-10-05T04:56:14.684Z, 22.41
2022-10-05T04:57:14.691Z, 22.42
2022-10-05T04:58:14.669Z, 22.42
2022-10-05T04:59:14.686Z, 22.41
2022-10-05T05:00:14.684Z, 22.42
2022-10-05T05:01:14.748Z, 22.43
2022-10-05T05:02:14.696Z, 22.43
2022-10-05T05:03:14.682Z, 22.44
2022-10-05T05:04:14.765Z, 22.42
2022-10-05T05:05:14.707Z, 22.43
2022-10-05T05:06:17.763Z, 22.43
2022-10-05T05:07:14.712Z, 22.44
2022-10-05T05:08:14.720Z, 22.43
2022-10-05T05:09:14.756Z, 22.44
2022-10-05T05:10:14.741Z, 22.43
2022-10-05T05:11:16.843Z, 22.42
2022-10-05T05:12:14.778Z, 22.44
2022-10-05T05:13:14.749Z, 22.42
2022-10-05T05:14:14.781Z, 22.43
2022-10-05T05:15:14.783Z, 22.44
2022-10-05T05:16:14.807Z, 22.43
2022-10-05T05:17:14.786Z, 22.44
2022-10-05T05:18:14.777Z, 22.44
2022-10-05T05:19:14.796Z, 22.45
2022-10-05T05:20:14.797Z, 22.44
2022-10-05T05:21:14.788Z, 22.45
2022-10-05T05:22:14.829Z, 22.45
2022-10-05T05:23:14.827Z, 22.45
2022-10-05T05:24:14.815Z, 22.45
2022-10-05T05:25:14.828Z, 22.44
2022-10-05T05:26:14.838Z, 22.46
2022-10-05T05:27:14.849Z, 22.44
2022-10-05T05:28:14.948Z, 22.37
2022-10-05T05:29:14.855Z, 22.20
2022-10-05T05:30:14.873Z, 22.13
2022-10-05T05:31:14.943Z, 22.20
2022-10-05T05:32:14.930Z, 21.91
2022-10-05T05:33:14.913Z, 21.94
2022-10-05T05:34:14.926Z, 22.02
2022-10-05T05:35:14.907Z, 22.06
2022-10-05T05:36:18.318Z, 22.02
2022-10-05T05:37:14.906Z, 21.91
2022-10-05T05:38:14.907Z, 22.01
2022-10-05T05:39:14.942Z, 22.09
2022-10-05T05:40:14.936Z, 22.31
2022-10-05T05:41:14.928Z, 22.36
2022-10-05T05:42:14.931Z, 22.35
2022-10-05T05:43:14.929Z, 22.38
2022-10-05T05:44:14.977Z, 22.37
2022-10-05T05:45:14.956Z, 22.38
2022-10-05T05:46:15.027Z, 22.38
2022-10-05T05:47:15.012Z, 22.31
2022-10-05T05:48:14.983Z, 22.30
2022-10-05T05:49:14.983Z, 22.34
2022-10-05T05:50:14.993Z, 22.35
2022-10-05T05:51:15.027Z, 22.37
2022-10-05T05:52:15.043Z, 22.39
2022-10-05T05:53:15.045Z, 22.37
2022-10-05T05:54:15.037Z, 22.38
2022-10-05T05:55:15.055Z, 22.39
2022-10-05T05:56:15.038Z, 22.40
2022-10-05T05:57:15.060Z, 22.39
2022-10-05T05:58:15.073Z, 22.39
2022-10-05T05:59:15.051Z, 22.39
2022-10-05T06:00:15.067Z, 22.40
2022-10-05T06:01:30.934Z, 22.41
2022-10-05T06:02:16.632Z, 22.39
2022-10-05T06:03:15.137Z, 22.41
2022-10-05T06:04:15.079Z, 22.40
2022-10-05T06:05:15.062Z, 22.39
2022-10-05T06:06:15.059Z, 22.39
2022-10-05T06:07:15.067Z, 22.39
2022-10-05T06:08:15.100Z, 22.39
2022-10-05T06:09:15.081Z, 22.40
2022-10-05T06:10:15.077Z, 22.40
2022-10-05T06:11:15.080Z, 22.40
2022-10-05T06:12:15.090Z, 22.40
2022-10-05T06:13:15.095Z, 22.40
2022-10-05T06:14:15.115Z, 22.40
2022-10-05T06:15:15.114Z, 22.42
2022-10-05T06:16:15.159Z, 22.40
2022-10-05T06:17:15.121Z, 22.41
2022-10-05T06:18:15.126Z, 22.42
2022-10-05T06:19:15.145Z, 22.40
2022-10-05T06:20:15.135Z, 22.40
2022-10-05T06:21:15.133Z, 22.43
2022-10-05T06:22:15.163Z, 22.40
2022-10-05T06:23:15.162Z, 22.41
2022-10-05T06:24:15.149Z, 22.42
2022-10-05T06:25:15.159Z, 22.41
2022-10-05T06:26:15.172Z, 22.41
2022-10-05T06:27:15.165Z, 22.41
2022-10-05T06:28:15.224Z, 22.41
2022-10-05T06:29:15.195Z, 22.41
2022-10-05T06:30:15.222Z, 22.41
2022-10-05T06:31:15.259Z, 22.41
2022-10-05T06:32:15.246Z, 22.42
2022-10-05T06:33:15.218Z, 22.40
2022-10-05T06:34:15.220Z, 22.42
2022-10-05T06:35:15.230Z, 22.40
2022-10-05T06:36:15.236Z, 22.41
2022-10-05T06:37:15.274Z, 22.42
2022-10-05T06:38:15.268Z, 22.40
2022-10-05T06:39:15.280Z, 22.41
2022-10-05T06:40:15.281Z, 22.43
2022-10-05T06:41:15.290Z, 22.39
2022-10-05T06:42:15.296Z, 22.40
2022-10-05T06:43:15.288Z, 22.43
2022-10-05T06:44:15.274Z, 22.41
2022-10-05T06:45:15.296Z, 22.40
2022-10-05T06:46:15.347Z, 22.40
2022-10-05T06:47:15.296Z, 22.41
2022-10-05T06:48:15.288Z, 22.39
2022-10-05T06:49:15.294Z, 22.41
2022-10-05T06:50:15.332Z, 22.41
2022-10-05T06:51:15.330Z, 22.43
2022-10-05T06:52:15.328Z, 22.41
2022-10-05T06:53:15.327Z, 22.40
2022-10-05T06:54:15.335Z, 22.40
2022-10-05T06:55:15.377Z, 22.42
2022-10-05T06:56:15.360Z, 22.44
2022-10-05T06:57:15.367Z, 22.42
2022-10-05T06:58:15.361Z, 22.41
2022-10-05T06:59:15.394Z, 22.41
2022-10-05T07:00:15.377Z, 22.42
2022-10-05T07:01:15.530Z, 22.40
2022-10-05T07:02:15.424Z, 22.40
2022-10-05T07:03:15.401Z, 22.42
2022-10-05T07:04:15.388Z, 22.42
2022-10-05T07:05:15.389Z, 22.41
2022-10-05T07:06:15.392Z, 22.41
2022-10-05T07:07:15.429Z, 22.41
2022-10-05T07:08:15.420Z, 22.40
2022-10-05T07:09:15.412Z, 22.42
2022-10-05T07:10:15.445Z, 22.42
2022-10-05T07:11:15.467Z, 22.41
2022-10-05T07:12:15.442Z, 22.41
2022-10-05T07:13:15.515Z, 22.41
2022-10-05T07:14:15.473Z, 22.40
2022-10-05T07:15:15.462Z, 22.40
2022-10-05T07:16:15.479Z, 22.41
2022-10-05T07:17:15.491Z, 22.42
2022-10-05T07:18:15.502Z, 22.42
2022-10-05T07:19:15.483Z, 22.42
2022-10-05T07:20:15.506Z, 22.41
2022-10-05T07:21:15.495Z, 22.42
2022-10-05T07:22:15.495Z, 22.41
2022-10-05T07:23:16.792Z, 22.42
2022-10-05T07:24:15.521Z, 22.41
2022-10-05T07:25:15.507Z, 22.42
2022-10-05T07:26:15.531Z, 22.41
2022-10-05T07:27:15.512Z, 22.43
2022-10-05T07:28:15.575Z, 22.42
2022-10-05T07:29:15.519Z, 22.43
2022-10-05T07:30:15.615Z, 22.42
2022-10-05T07:31:15.613Z, 22.41
2022-10-05T07:32:15.533Z, 22.43
2022-10-05T07:33:15.536Z, 22.41
2022-10-05T07:34:15.574Z, 22.42
2022-10-05T07:35:15.585Z, 22.42
2022-10-05T07:36:15.589Z, 22.43
2022-10-05T07:37:15.569Z, 22.42
2022-10-05T07:38:15.576Z, 22.41
2022-10-05T07:39:15.608Z, 22.41
2022-10-05T07:40:15.625Z, 22.43
2022-10-05T07:41:15.606Z, 22.42
2022-10-05T07:42:15.617Z, 22.41
2022-10-05T07:43:15.615Z, 22.42
2022-10-05T07:44:15.616Z, 22.41
2022-10-05T07:45:15.609Z, 22.41
2022-10-05T07:46:15.734Z, 22.42
2022-10-05T07:47:15.616Z, 22.41
2022-10-05T07:48:15.647Z, 22.41
2022-10-05T07:49:15.614Z, 22.41
2022-10-05T07:50:15.692Z, 22.41
2022-10-05T07:51:15.629Z, 22.42
2022-10-05T07:52:15.638Z, 22.43
2022-10-05T07:53:15.659Z, 22.42
2022-10-05T07:54:15.646Z, 22.43
2022-10-05T07:55:15.646Z, 22.42
2022-10-05T07:56:15.670Z, 22.41
2022-10-05T07:57:15.664Z, 22.43
2022-10-05T07:58:15.674Z, 22.43
2022-10-05T07:59:15.658Z, 22.42
2022-10-05T08:00:15.676Z, 22.42
2022-10-05T08:01:15.663Z, 22.42
2022-10-05T08:02:15.901Z, 22.41
2022-10-05T08:03:15.757Z, 22.40
2022-10-05T08:04:15.672Z, 22.42
2022-10-05T08:05:15.690Z, 22.41
2022-10-05T08:06:15.692Z, 22.42
2022-10-05T08:07:15.710Z, 22.40
2022-10-05T08:08:18.121Z, 22.41
2022-10-05T08:09:15.679Z, 22.42
2022-10-05T08:10:15.676Z, 22.40
2022-10-05T08:11:15.675Z, 22.41
2022-10-05T08:12:15.685Z, 22.41
2022-10-05T08:13:15.703Z, 22.40
2022-10-05T08:14:15.690Z, 22.41
2022-10-05T08:15:15.698Z, 22.42
2022-10-05T08:16:15.752Z, 22.42
2022-10-05T08:17:15.717Z, 22.41
2022-10-05T08:18:15.706Z, 22.41
2022-10-05T08:19:15.716Z, 22.42
2022-10-05T08:20:15.722Z, 22.44
2022-10-05T08:21:15.723Z, 22.41
2022-10-05T08:22:15.732Z, 22.40
2022-10-05T08:23:15.716Z, 22.42
2022-10-05T08:24:15.706Z, 22.43
2022-10-05T08:25:15.721Z, 22.40
2022-10-05T08:26:15.716Z, 22.42
2022-10-05T08:27:15.709Z, 22.39
2022-10-05T08:28:15.811Z, 22.41
2022-10-05T08:29:15.724Z, 22.42
2022-10-05T08:30:15.727Z, 22.40
2022-10-05T08:31:15.790Z, 22.41
2022-10-05T08:32:15.720Z, 22.43
2022-10-05T08:33:15.710Z, 22.41
2022-10-05T08:34:15.732Z, 22.41
2022-10-05T08:35:15.742Z, 22.42
2022-10-05T08:36:15.741Z, 22.40
2022-10-05T08:37:15.736Z, 22.41
2022-10-05T08:38:15.737Z, 22.40
2022-10-05T08:39:15.730Z, 22.41
2022-10-05T08:40:15.725Z, 22.42
2022-10-05T08:41:15.727Z, 22.42
2022-10-05T08:42:15.729Z, 22.41
2022-10-05T08:43:15.729Z, 22.41
2022-10-05T08:44:17.155Z, 22.41
2022-10-05T08:45:15.733Z, 22.41
2022-10-05T08:46:15.813Z, 22.40
2022-10-05T08:47:15.732Z, 22.40
2022-10-05T08:48:15.785Z, 22.41
2022-10-05T08:49:15.809Z, 22.40
2022-10-05T08:50:15.839Z, 22.41
2022-10-05T08:51:15.885Z, 22.38
2022-10-05T08:52:15.979Z, 22.41
2022-10-05T08:53:15.962Z, 22.38
2022-10-05T08:54:16.034Z, 22.40
2022-10-05T08:55:16.019Z, 22.40
2022-10-05T08:56:19.848Z, 22.40
2022-10-05T08:57:16.126Z, 22.39
2022-10-05T08:58:16.113Z, 22.41
2022-10-05T08:59:16.217Z, 22.40
2022-10-05T09:00:16.197Z, 22.40
2022-10-05T09:01:16.339Z, 22.40
2022-10-05T09:02:16.328Z, 22.40
2022-10-05T09:03:16.350Z, 22.40
2022-10-05T09:04:16.385Z, 22.40
2022-10-05T09:05:16.362Z, 22.39
2022-10-05T09:06:16.386Z, 22.41
2022-10-05T09:07:16.464Z, 22.42
2022-10-05T09:08:16.471Z, 22.40
2022-10-05T09:09:16.504Z, 22.41
2022-10-05T09:10:16.515Z, 22.40
2022-10-05T09:11:16.628Z, 22.39
2022-10-05T09:12:16.652Z, 22.40
2022-10-05T09:13:16.620Z, 22.41
2022-10-05T09:14:16.697Z, 22.38
2022-10-05T09:15:25.794Z, 22.40
2022-10-05T09:16:16.831Z, 22.40
2022-10-05T09:17:16.819Z, 22.41
2022-10-05T09:18:16.776Z, 22.40
2022-10-05T09:19:16.827Z, 22.41
2022-10-05T09:20:16.865Z, 22.40
2022-10-05T09:21:16.936Z, 22.41
2022-10-05T09:22:16.958Z, 22.40
2022-10-05T09:23:16.951Z, 22.42
2022-10-05T09:24:16.984Z, 22.39
2022-10-05T09:25:17.023Z, 22.39
2022-10-05T09:26:17.063Z, 22.40
2022-10-05T09:27:17.146Z, 22.40
2022-10-05T09:28:17.218Z, 22.40
2022-10-05T09:29:17.161Z, 22.41
2022-10-05T09:30:17.186Z, 22.42
2022-10-05T09:31:17.263Z, 22.40
2022-10-05T09:32:17.248Z, 22.40
2022-10-05T09:33:17.268Z, 22.43
2022-10-05T09:34:17.297Z, 22.41
2022-10-05T09:35:17.334Z, 22.42
2022-10-05T09:36:17.424Z, 22.42
2022-10-05T09:37:17.417Z, 22.41
2022-10-05T09:38:17.450Z, 22.42
2022-10-05T09:39:17.476Z, 22.40
2022-10-05T09:40:17.547Z, 22.41
2022-10-05T09:41:17.553Z, 22.43
2022-10-05T09:42:17.558Z, 22.42
2022-10-05T09:43:17.606Z, 22.42
2022-10-05T09:44:17.686Z, 22.43
2022-10-05T09:45:21.146Z, 22.41
2022-10-05T09:46:17.764Z, 22.41
2022-10-05T09:47:17.757Z, 22.42
2022-10-05T09:48:17.824Z, 22.41
2022-10-05T09:49:17.794Z, 22.41
2022-10-05T09:50:17.890Z, 22.43
2022-10-05T09:51:17.866Z, 22.42
2022-10-05T09:52:19.063Z, 22.43
2022-10-05T09:53:17.945Z, 22.42
2022-10-05T09:54:17.970Z, 22.42
2022-10-05T09:55:18.005Z, 22.41
2022-10-05T09:56:18.219Z, 22.42
2022-10-05T09:57:18.056Z, 22.42
2022-10-05T09:58:18.099Z, 22.42
2022-10-05T09:59:18.204Z, 22.41
2022-10-05T10:00:18.269Z, 22.42
2022-10-05T10:01:32.515Z, 22.41
2022-10-05T10:02:18.391Z, 22.41
2022-10-05T10:03:18.451Z, 22.40
2022-10-05T10:04:18.346Z, 22.41
2022-10-05T10:05:18.338Z, 22.41
2022-10-05T10:06:18.370Z, 22.42
2022-10-05T10:07:18.451Z, 22.43
2022-10-05T10:08:18.443Z, 22.42
2022-10-05T10:09:18.488Z, 22.42
2022-10-05T10:10:18.488Z, 22.43
2022-10-05T10:11:18.515Z, 22.43
2022-10-05T10:12:18.561Z, 22.42
2022-10-05T10:13:18.608Z, 22.43
2022-10-05T10:14:18.692Z, 22.42
2022-10-05T10:15:18.683Z, 22.43
2022-10-05T10:16:18.756Z, 22.44
2022-10-05T10:17:18.741Z, 22.43
2022-10-05T10:18:18.763Z, 22.43
2022-10-05T10:19:18.803Z, 22.42
2022-10-05T10:20:18.887Z, 22.44
2022-10-05T10:21:18.869Z, 22.43
2022-10-05T10:22:18.975Z, 22.42
2022-10-05T10:23:18.894Z, 22.44
2022-10-05T10:24:18.947Z, 22.43
2022-10-05T10:25:18.859Z, 22.43
2022-10-05T10:26:18.861Z, 22.43
2022-10-05T10:27:18.905Z, 22.43
2022-10-05T10:28:18.994Z, 22.43
2022-10-05T10:29:18.956Z, 22.44
2022-10-05T10:30:18.933Z, 22.43
2022-10-05T10:31:18.954Z, 22.43
2022-10-05T10:32:18.907Z, 22.44
2022-10-05T10:33:18.925Z, 22.43
2022-10-05T10:34:18.951Z, 22.43
2022-10-05T10:35:19.032Z, 22.44
2022-10-05T10:36:18.955Z, 22.44
2022-10-05T10:37:18.967Z, 22.43
2022-10-05T10:38:18.963Z, 22.45
2022-10-05T10:39:18.958Z, 22.42
2022-10-05T10:40:18.947Z, 22.42
2022-10-05T10:41:18.951Z, 22.44
2022-10-05T10:42:23.893Z, 22.41
2022-10-05T10:43:18.961Z, 22.43
2022-10-05T10:44:18.964Z, 22.44
2022-10-05T10:45:18.992Z, 22.43
2022-10-05T10:46:19.010Z, 22.44
2022-10-05T10:47:18.967Z, 22.43
2022-10-05T10:48:19.005Z, 22.44
2022-10-05T10:49:18.990Z, 22.45
2022-10-05T10:50:19.000Z, 22.44
2022-10-05T10:51:19.001Z, 22.44
2022-10-05T10:52:19.032Z, 22.44
2022-10-05T10:53:19.045Z, 22.44
2022-10-05T10:54:19.050Z, 22.44
2022-10-05T10:55:19.035Z, 22.44
2022-10-05T10:56:19.039Z, 22.43
2022-10-05T10:57:19.060Z, 22.42
2022-10-05T10:58:19.112Z, 22.43
2022-10-05T10:59:19.058Z, 22.20
2022-10-05T11:00:19.083Z, 22.39
2022-10-05T11:01:19.144Z, 22.41
2022-10-05T11:02:19.125Z, 22.42
2022-10-05T11:03:19.064Z, 22.44
2022-10-05T11:04:19.094Z, 22.44
2022-10-05T11:05:19.070Z, 22.44
2022-10-05T11:06:19.068Z, 22.44
2022-10-05T11:07:19.062Z, 22.45
2022-10-05T11:08:19.113Z, 22.45
2022-10-05T11:09:19.132Z, 22.44
2022-10-05T11:10:19.106Z, 22.43
2022-10-05T11:11:19.128Z, 22.43
2022-10-05T11:12:19.111Z, 22.43
2022-10-05T11:13:19.124Z, 22.43
2022-10-05T11:14:19.122Z, 22.44
2022-10-05T11:15:19.133Z, 22.45
2022-10-05T11:16:19.912Z, 22.44
2022-10-05T11:17:19.140Z, 22.46
2022-10-05T11:18:19.145Z, 22.46
2022-10-05T11:19:19.183Z, 22.44
2022-10-05T11:20:19.156Z, 22.45
2022-10-05T11:21:19.160Z, 22.45
2022-10-05T11:22:19.170Z, 22.45
2022-10-05T11:23:19.187Z, 22.45
2022-10-05T11:24:19.201Z, 22.46
2022-10-05T11:25:19.194Z, 22.45
2022-10-05T11:26:19.187Z, 22.46
2022-10-05T11:27:19.226Z, 22.45
2022-10-05T11:28:19.201Z, 22.45
2022-10-05T11:29:19.218Z, 22.45
2022-10-05T11:30:19.204Z, 22.47
2022-10-05T11:31:19.267Z, 22.45
2022-10-05T11:32:19.215Z, 22.46
2022-10-05T11:33:19.225Z, 22.46
2022-10-05T11:34:19.225Z, 22.45
2022-10-05T11:35:19.237Z, 22.46
2022-10-05T11:36:19.275Z, 22.45
2022-10-05T11:37:19.251Z, 22.46
2022-10-05T11:38:19.288Z, 22.47
2022-10-05T11:39:19.305Z, 22.45
2022-10-05T11:40:19.302Z, 22.46
2022-10-05T11:41:19.291Z, 22.46
2022-10-05T11:42:19.275Z, 22.45
2022-10-05T11:43:19.273Z, 22.47
2022-10-05T11:44:19.268Z, 22.48
2022-10-05T11:45:19.282Z, 22.47
2022-10-05T11:46:19.323Z, 22.48
2022-10-05T11:47:19.295Z, 22.46
2022-10-05T11:48:19.301Z, 22.46
2022-10-05T11:49:19.299Z, 22.47
2022-10-05T11:50:19.346Z, 22.46
2022-10-05T11:51:19.308Z, 22.46
2022-10-05T11:52:19.320Z, 22.46
2022-10-05T11:53:19.369Z, 22.46
2022-10-05T11:54:19.353Z, 22.46
2022-10-05T11:55:19.362Z, 22.46
2022-10-05T11:56:19.417Z, 22.46
2022-10-05T11:57:19.362Z, 22.47
2022-10-05T11:58:19.373Z, 22.46
2022-10-05T11:59:19.371Z, 22.46
2022-10-05T12:00:19.413Z, 22.46
2022-10-05T12:01:19.378Z, 22.46
2022-10-05T12:02:19.397Z, 22.48
2022-10-05T12:03:19.491Z, 22.48
2022-10-05T12:04:19.391Z, 22.46
2022-10-05T12:05:19.437Z, 22.48
2022-10-05T12:06:19.393Z, 22.46
2022-10-05T12:07:19.419Z, 22.48
2022-10-05T12:08:19.451Z, 22.48
2022-10-05T12:09:19.524Z, 22.49
2022-10-05T12:10:19.470Z, 22.48
2022-10-05T12:11:19.448Z, 22.49
2022-10-05T12:12:19.456Z, 22.49
2022-10-05T12:13:19.472Z, 22.48
2022-10-05T12:14:19.449Z, 22.48
2022-10-05T12:15:19.466Z, 22.49
2022-10-05T12:16:19.526Z, 22.48
2022-10-05T12:17:19.507Z, 22.48
2022-10-05T12:18:19.489Z, 22.48
2022-10-05T12:19:19.491Z, 22.48
2022-10-05T12:20:19.500Z, 22.48
2022-10-05T12:21:19.498Z, 22.50
2022-10-05T12:22:19.503Z, 22.49
2022-10-05T12:23:19.526Z, 22.49
2022-10-05T12:24:23.319Z, 22.51
2022-10-05T12:25:19.524Z, 22.49
2022-10-05T12:26:19.528Z, 22.50
2022-10-05T12:27:19.521Z, 22.50
2022-10-05T12:28:19.540Z, 22.49